createdAt,value
2023-03-17T00:41:04.641Z,870.00
2023-03-17T00:42:04.728Z,874.00
2023-03-17T00:43:04.784Z,875.00
2023-03-17T01:24:08.362Z,849.00
2023-03-17T01:33:07.959Z,842.00
2023-03-17T01:34:08.017Z,841.00
2023-03-17T01:35:08.072Z,842.00
2023-03-17T01:36:08.150Z,842.00
2023-03-17T01:37:08.161Z,840.00
2023-03-17T01:38:08.207Z,840.00
2023-03-17T01:39:08.248Z,838.00
2023-03-17T01:40:08.293Z,839.00
2023-03-17T01:41:08.344Z,837.00
2023-03-17T01:42:08.410Z,837.00
2023-03-17T01:43:08.529Z,835.00
2023-03-17T01:44:08.509Z,835.00
2023-03-17T01:45:08.549Z,837.00
2023-03-17T01:46:08.671Z,833.00
2023-03-17T01:47:08.634Z,830.00
2023-03-17T01:48:08.766Z,828.00
2023-03-17T01:49:08.732Z,828.00
2023-03-17T01:50:08.800Z,831.00
2023-03-17T01:51:08.844Z,832.00
2023-03-17T01:52:08.876Z,829.00
2023-03-17T02:28:10.716Z,795.00
2023-03-17T02:29:10.747Z,795.00
2023-03-17T02:30:10.797Z,802.00
2023-03-17T02:31:10.844Z,804.00
2023-03-17T02:32:10.875Z,803.00
2023-03-17T02:33:10.910Z,803.00
2023-03-17T02:34:10.964Z,804.00
2023-03-17T02:35:10.996Z,801.00
2023-03-17T02:36:11.083Z,799.00
2023-03-17T02:37:11.065Z,797.00
2023-03-17T02:38:11.120Z,795.00
2023-03-17T02:39:11.145Z,796.00
2023-03-17T02:41:11.224Z,794.00
2023-03-17T02:42:11.410Z,792.00
2023-03-17T02:43:11.328Z,787.00
2023-03-17T02:44:11.359Z,783.00
2023-03-17T02:45:11.398Z,782.00
2023-03-17T02:46:11.485Z,782.00
2023-03-17T02:47:11.483Z,783.00
2023-03-17T02:48:11.522Z,785.00
2023-03-17T02:49:11.563Z,785.00
2023-03-17T02:50:11.607Z,785.00
2023-03-17T02:51:11.651Z,784.00
2023-03-17T02:52:11.689Z,787.00
2023-03-17T02:53:11.816Z,788.00
2023-03-17T02:54:11.789Z,786.00
2023-03-17T02:55:11.875Z,785.00
2023-03-17T02:56:11.943Z,784.00
2023-03-17T02:57:11.901Z,783.00
2023-03-17T02:58:12.023Z,780.00
2023-03-17T02:59:11.983Z,781.00
2023-03-17T03:00:12.016Z,782.00
2023-03-17T03:01:12.072Z,781.00
2023-03-17T03:02:12.150Z,779.00
2023-03-17T03:03:12.136Z,773.00
2023-03-17T03:04:12.202Z,771.00
2023-03-17T03:05:12.224Z,770.00
2023-03-17T03:06:12.259Z,775.00
2023-03-17T03:07:12.875Z,773.00
2023-03-17T03:08:12.358Z,770.00
2023-03-17T03:09:12.385Z,769.00
2023-03-17T03:10:12.430Z,770.00
2023-03-17T03:11:12.466Z,770.00
2023-03-17T03:12:12.509Z,770.00
2023-03-17T03:13:12.541Z,766.00
2023-03-17T03:14:12.574Z,764.00
2023-03-17T03:15:12.680Z,767.00
2023-03-17T03:16:12.714Z,770.00
2023-03-17T03:17:12.709Z,774.00
2023-03-17T03:18:12.755Z,772.00
2023-03-17T03:19:12.802Z,774.00
2023-03-17T03:20:12.850Z,775.00
2023-03-17T03:21:12.864Z,778.00
2023-03-17T03:22:12.912Z,778.00
2023-03-17T03:23:12.943Z,775.00
2023-03-17T03:24:12.985Z,772.00
2023-03-17T03:25:13.021Z,768.00
2023-03-17T03:26:13.052Z,766.00
2023-03-17T03:27:13.082Z,765.00
2023-03-17T03:28:13.129Z,766.00
2023-03-17T03:29:13.169Z,765.00
2023-03-17T03:30:13.211Z,765.00
2023-03-17T03:31:13.252Z,764.00
2023-03-17T03:32:13.289Z,762.00
2023-03-17T03:33:13.338Z,765.00
2023-03-17T03:34:13.364Z,767.00
2023-03-17T03:35:13.410Z,763.00
2023-03-17T03:36:13.526Z,760.00
2023-03-17T03:37:13.486Z,759.00
2023-03-17T03:38:13.528Z,758.00
2023-03-17T03:39:14.510Z,755.00
2023-03-17T03:40:13.609Z,756.00
2023-03-17T03:41:13.633Z,754.00
2023-03-17T03:42:13.666Z,752.00
2023-03-17T03:43:23.036Z,751.00
2023-03-17T03:44:14.724Z,750.00
2023-03-17T03:45:13.733Z,749.00
2023-03-17T03:46:13.786Z,751.00
2023-03-17T04:12:14.102Z,736.00
2023-03-17T04:13:14.124Z,733.00
2023-03-17T04:14:14.126Z,733.00
2023-03-17T04:15:14.145Z,732.00
2023-03-17T04:16:14.190Z,731.00
2023-03-17T04:17:14.163Z,731.00
2023-03-17T04:18:14.191Z,730.00
2023-03-17T04:19:14.272Z,731.00
2023-03-17T04:20:14.331Z,730.00
2023-03-17T04:21:14.363Z,728.00
2023-03-17T04:22:14.441Z,729.00
2023-03-17T04:23:14.519Z,729.00
2023-03-17T04:24:14.604Z,730.00
2023-03-17T04:25:14.689Z,730.00
2023-03-17T04:26:14.785Z,729.00
2023-03-17T04:27:14.846Z,727.00
2023-03-17T04:28:14.908Z,729.00
2023-03-17T04:29:14.994Z,730.00
2023-03-17T04:30:15.079Z,729.00
2023-03-17T04:31:15.206Z,726.00
2023-03-17T04:32:15.227Z,728.00
2023-03-17T04:33:15.320Z,729.00
2023-03-17T04:34:15.388Z,729.00
2023-03-17T04:35:15.456Z,731.00
2023-03-17T04:36:16.402Z,731.00
2023-03-17T04:37:15.609Z,732.00
2023-03-17T04:38:15.676Z,734.00
2023-03-17T04:39:15.760Z,732.00
2023-03-17T04:40:15.823Z,730.00
2023-03-17T04:41:15.959Z,727.00
2023-03-17T04:42:15.967Z,725.00
2023-03-17T04:43:16.039Z,723.00
2023-03-17T04:44:16.108Z,728.00
2023-03-17T04:45:16.195Z,729.00
2023-03-17T04:46:16.430Z,725.00
2023-03-17T04:47:16.410Z,723.00
2023-03-17T04:48:16.414Z,723.00
2023-03-17T04:49:16.498Z,724.00
2023-03-17T04:50:16.670Z,723.00
2023-03-17T04:51:16.622Z,722.00
2023-03-17T04:52:16.688Z,722.00
2023-03-17T04:53:16.762Z,725.00
2023-03-17T04:54:16.839Z,727.00
2023-03-17T04:55:16.896Z,725.00
2023-03-17T04:56:16.969Z,727.00
2023-03-17T04:57:17.042Z,728.00
2023-03-17T04:58:29.821Z,725.00
2023-03-17T04:59:18.101Z,722.00
2023-03-17T05:00:17.107Z,719.00
2023-03-17T05:01:17.198Z,718.00
2023-03-17T05:02:17.228Z,718.00
2023-03-17T05:03:26.811Z,717.00
2023-03-17T05:04:30.773Z,717.00
2023-03-17T05:05:18.152Z,718.00
2023-03-17T05:43:17.989Z,700.00
2023-03-17T05:44:18.066Z,701.00
2023-03-17T05:45:18.073Z,701.00
2023-03-17T05:46:20.340Z,699.00
2023-03-17T05:47:18.163Z,698.00
2023-03-17T05:48:18.236Z,700.00
2023-03-17T05:49:18.291Z,696.00
2023-03-17T05:50:18.353Z,697.00
2023-03-17T05:51:18.429Z,697.00
2023-03-17T06:57:20.859Z,1398.00
2023-03-17T07:40:21.682Z,1744.00
2023-03-17T09:30:28.085Z,1061.00
2023-03-17T09:37:28.512Z,1187.00
2023-03-17T09:44:27.972Z,1280.00
2023-03-17T09:45:27.979Z,1279.00
2023-03-17T09:46:28.100Z,1284.00
2023-03-17T09:47:28.062Z,1290.00
2023-03-17T09:48:28.073Z,1308.00
2023-03-17T09:49:28.128Z,1359.00
2023-03-17T09:50:28.205Z,1381.00
2023-03-17T09:51:28.271Z,1404.00
2023-03-17T09:52:28.333Z,1417.00
2023-03-17T09:53:28.397Z,1476.00
2023-03-17T09:54:28.457Z,1483.00
2023-03-17T09:55:28.570Z,1500.00
2023-03-17T09:56:29.020Z,1520.00
2023-03-17T09:57:28.709Z,1535.00
2023-03-17T09:58:28.708Z,1550.00
2023-03-17T09:59:28.782Z,1578.00
2023-03-17T10:00:28.844Z,1626.00
2023-03-17T10:01:28.963Z,1641.00
2023-03-17T10:02:29.013Z,1663.00
2023-03-17T10:03:29.018Z,1698.00
2023-03-17T10:04:29.123Z,1720.00
2023-03-17T10:05:29.451Z,1763.00
2023-03-17T10:06:29.154Z,1785.00
2023-03-17T11:38:32.447Z,1454.00
2023-03-17T11:39:32.574Z,1451.00
2023-03-17T11:40:32.906Z,1451.00
2023-03-17T11:42:32.704Z,1448.00
2023-03-17T11:43:33.572Z,1447.00
2023-03-17T11:44:32.898Z,1450.00
2023-03-17T11:45:32.905Z,1449.00
2023-03-17T11:46:33.041Z,1449.00
2023-03-17T11:47:33.024Z,1445.00
2023-03-17T11:48:33.063Z,1439.00
2023-03-17T11:49:33.121Z,1435.00
2023-03-17T11:50:33.551Z,1433.00
2023-03-17T11:51:33.254Z,1434.00
2023-03-17T11:52:33.320Z,1429.00
2023-03-17T11:53:33.387Z,1426.00
2023-03-17T11:54:33.437Z,1420.00
2023-03-17T11:55:33.594Z,1417.00
2023-03-17T11:56:33.568Z,1413.00
2023-03-17T11:57:33.632Z,1409.00
2023-03-17T11:58:33.690Z,1411.00
2023-03-17T11:59:33.749Z,1411.00
2023-03-17T12:00:34.567Z,1412.00
2023-03-17T12:01:33.872Z,1411.00
2023-03-17T12:02:33.945Z,1410.00
2023-03-17T12:03:34.053Z,1410.00
2023-03-17T12:04:34.127Z,1408.00
2023-03-17T12:05:34.112Z,1408.00
2023-03-17T12:06:34.184Z,1409.00
2023-03-17T12:07:34.237Z,1407.00
2023-03-17T12:08:34.303Z,1404.00
2023-03-17T12:09:34.377Z,1404.00
2023-03-17T12:10:34.420Z,1403.00
2023-03-17T12:11:34.483Z,1403.00
2023-03-17T12:12:34.538Z,1406.00
2023-03-17T12:13:34.591Z,1408.00
2023-03-17T12:14:35.100Z,1408.00
2023-03-17T12:15:34.740Z,1405.00
2023-03-17T12:16:34.722Z,1404.00
2023-03-17T12:17:34.789Z,1402.00
2023-03-17T12:18:34.834Z,1400.00
2023-03-17T12:19:34.880Z,1398.00
2023-03-17T12:20:35.003Z,1396.00
2023-03-17T12:21:34.979Z,1391.00
2023-03-17T12:22:35.037Z,1391.00
2023-03-17T12:23:35.089Z,1389.00
2023-03-17T12:24:35.150Z,1386.00
2023-03-17T13:41:37.974Z,1143.00
2023-03-17T13:43:38.603Z,1135.00
2023-03-17T13:44:38.010Z,1132.00
2023-03-17T13:45:38.032Z,1132.00
2023-03-17T13:46:38.156Z,1132.00
2023-03-17T13:47:38.066Z,1129.00
2023-03-17T13:48:38.122Z,1126.00
2023-03-17T13:49:38.123Z,1124.00
2023-03-17T13:50:38.206Z,1124.00
2023-03-17T13:51:40.149Z,1125.00
2023-03-17T13:52:38.175Z,1123.00
2023-03-17T13:53:38.187Z,1122.00
2023-03-17T13:54:38.219Z,1118.00
2023-03-17T13:55:38.236Z,1114.00
2023-03-17T13:56:38.218Z,1112.00
2023-03-17T13:57:38.220Z,1109.00
2023-03-17T13:58:38.235Z,1112.00
2023-03-17T13:59:38.246Z,1115.00
2023-03-17T14:00:38.292Z,1111.00
2023-03-17T14:01:38.322Z,1110.00
2023-03-17T14:02:38.267Z,1100.00
2023-03-17T14:03:38.334Z,1102.00
2023-03-17T14:04:38.284Z,1105.00
2023-03-17T14:05:38.302Z,1101.00
2023-03-17T14:06:38.310Z,1102.00
2023-03-17T14:07:38.322Z,1101.00
2023-03-17T14:08:38.345Z,1101.00
2023-03-17T14:09:38.352Z,1096.00
2023-03-17T14:10:38.438Z,1096.00
2023-03-17T14:11:38.634Z,1094.00
2023-03-17T14:12:38.392Z,1093.00
2023-03-17T14:13:38.395Z,1095.00
2023-03-17T14:14:38.408Z,1091.00
2023-03-17T14:15:38.424Z,1093.00
2023-03-17T14:16:38.505Z,1089.00
2023-03-17T14:17:38.486Z,1087.00
2023-03-17T14:18:38.470Z,1085.00
2023-03-17T14:19:38.521Z,1088.00
2023-03-17T14:20:38.498Z,1091.00
2023-03-17T14:21:38.517Z,1091.00
2023-03-17T14:22:38.527Z,1096.00
2023-03-17T14:23:39.118Z,1097.00
2023-03-17T14:24:38.538Z,1097.00
2023-03-17T14:25:38.553Z,1097.00
2023-03-17T14:26:38.558Z,1096.00
2023-03-17T14:27:38.559Z,1096.00
2023-03-17T14:28:39.117Z,1094.00
2023-03-17T14:29:38.583Z,1094.00
2023-03-17T14:30:38.690Z,1091.00
2023-03-17T14:31:38.607Z,1092.00
2023-03-17T14:32:38.668Z,1092.00
2023-03-17T14:33:38.626Z,1094.00
2023-03-17T14:34:38.629Z,1093.00
2023-03-17T14:35:38.679Z,1093.00
2023-03-17T14:36:38.641Z,1090.00
2023-03-17T14:37:38.662Z,1087.00
2023-03-17T14:38:38.672Z,1089.00
2023-03-17T14:39:38.679Z,1091.00
2023-03-17T14:40:38.679Z,1092.00
2023-03-17T14:41:38.701Z,1093.00
2023-03-17T14:42:38.695Z,1090.00
2023-03-17T14:43:38.722Z,1088.00
2023-03-17T14:44:38.700Z,1086.00
2023-03-17T14:45:38.760Z,1083.00
2023-03-17T14:46:38.729Z,1081.00
2023-03-17T14:47:38.828Z,1077.00
2023-03-17T14:48:38.748Z,1079.00
2023-03-17T14:49:38.754Z,1079.00
2023-03-17T14:50:38.765Z,1081.00
2023-03-17T14:51:38.777Z,1080.00
2023-03-17T14:52:38.789Z,1080.00
2023-03-17T14:58:38.848Z,1082.00
2023-03-17T14:59:38.866Z,1082.00
2023-03-17T15:00:38.901Z,1076.00
2023-03-17T15:02:38.947Z,1074.00
2023-03-17T15:03:38.892Z,1071.00
2023-03-17T15:04:38.895Z,1066.00
2023-03-17T15:05:38.930Z,1066.00
2023-03-17T15:06:38.918Z,1066.00
2023-03-17T15:07:38.930Z,1064.00
2023-03-17T15:08:39.148Z,1066.00
2023-03-17T15:09:38.956Z,1064.00
2023-03-17T15:10:38.955Z,1063.00
2023-03-17T15:11:38.964Z,1062.00
2023-03-17T15:12:38.980Z,1062.00
2023-03-17T15:13:38.999Z,1061.00
2023-03-17T15:14:38.987Z,1061.00
2023-03-17T15:15:39.019Z,1063.00
2023-03-17T15:16:39.058Z,1065.00
2023-03-17T15:17:39.033Z,1065.00
2023-03-17T15:18:39.077Z,1067.00
2023-03-17T15:19:39.118Z,1066.00
2023-03-17T15:20:39.153Z,1065.00
2023-03-17T15:21:39.188Z,1064.00
2023-03-17T15:22:39.234Z,1065.00
2023-03-17T15:23:39.282Z,1065.00
2023-03-17T15:24:39.330Z,1060.00
2023-03-17T15:25:39.367Z,1060.00
2023-03-17T15:26:39.403Z,1060.00
2023-03-17T15:27:39.444Z,1060.00
2023-03-17T15:28:39.483Z,1059.00
2023-03-17T15:31:39.625Z,1056.00
2023-03-17T15:41:40.052Z,1051.00
2023-03-17T15:42:40.201Z,1049.00
2023-03-17T15:43:40.131Z,1048.00
2023-03-17T15:44:40.178Z,1049.00
2023-03-17T15:45:40.224Z,1047.00
2023-03-17T15:46:40.268Z,1044.00
2023-03-17T15:47:40.315Z,1041.00
2023-03-17T15:48:40.358Z,1037.00
2023-03-17T15:49:40.404Z,1038.00
2023-03-17T15:50:40.458Z,1038.00
2023-03-17T15:51:40.524Z,1040.00
2023-03-17T15:52:40.549Z,1039.00
2023-03-17T15:53:40.594Z,1040.00
2023-03-17T15:54:40.648Z,1043.00
2023-03-17T15:55:40.700Z,1044.00
2023-03-17T15:56:40.821Z,1046.00
2023-03-17T15:57:42.764Z,1045.00
2023-03-17T15:58:40.898Z,1044.00
2023-03-17T15:59:40.869Z,1041.00
2023-03-17T16:00:40.905Z,1041.00
2023-03-17T16:01:41.006Z,1041.00
2023-03-17T16:02:40.998Z,1042.00
2023-03-17T16:03:41.041Z,1043.00
2023-03-17T16:04:41.117Z,1040.00
2023-03-17T16:05:41.137Z,1041.00
2023-03-17T16:06:41.194Z,1039.00
2023-03-17T16:07:41.236Z,1038.00
2023-03-17T16:08:41.285Z,1036.00
2023-03-17T16:09:41.337Z,1036.00
2023-03-17T16:10:41.382Z,1035.00
2023-03-17T16:11:41.418Z,1032.00
2023-03-17T16:12:41.473Z,1032.00
2023-03-17T16:13:41.518Z,1031.00
2023-03-17T16:14:41.573Z,1031.00
2023-03-17T16:15:41.661Z,1026.00
2023-03-17T16:16:41.656Z,1024.00
2023-03-17T16:17:41.701Z,1026.00
2023-03-17T16:18:41.761Z,1026.00
2023-03-17T16:19:41.829Z,1026.00
2023-03-17T16:20:41.861Z,1026.00
2023-03-17T16:21:41.915Z,1024.00
2023-03-17T16:22:42.035Z,1024.00
2023-03-17T16:23:42.021Z,1023.00
2023-03-17T16:24:42.059Z,1022.00
2023-03-17T16:25:42.108Z,1017.00
2023-03-17T16:26:42.168Z,1018.00
2023-03-17T16:27:42.212Z,1019.00
2023-03-17T16:28:43.187Z,1020.00
2023-03-17T16:29:42.326Z,1019.00
2023-03-17T16:30:42.373Z,1016.00
2023-03-17T16:31:42.492Z,1015.00
2023-03-17T16:32:42.501Z,1012.00
2023-03-17T16:33:42.526Z,1011.00
2023-03-17T16:34:42.569Z,1012.00
2023-03-17T16:35:42.684Z,1015.00
2023-03-17T16:36:42.673Z,1014.00
2023-03-17T16:37:42.726Z,1016.00
2023-03-17T16:38:42.778Z,1015.00
2023-03-17T16:39:42.821Z,1015.00
2023-03-17T16:40:42.870Z,1018.00
2023-03-17T16:41:42.925Z,1015.00
2023-03-17T16:42:43.056Z,1014.00
2023-03-17T16:43:43.044Z,1015.00
2023-03-17T16:44:43.137Z,1011.00
2023-03-17T16:45:43.117Z,1009.00
2023-03-17T16:46:43.208Z,1010.00
2023-03-17T16:47:43.217Z,1009.00
2023-03-17T16:48:43.264Z,1005.00
2023-03-17T16:49:43.337Z,1007.00
2023-03-17T16:50:43.444Z,1006.00
2023-03-17T16:51:43.431Z,1002.00
2023-03-17T16:52:43.494Z,998.00
2023-03-17T16:53:43.547Z,1000.00
2023-03-17T16:54:43.589Z,994.00
2023-03-17T16:55:43.655Z,997.00
2023-03-17T16:56:43.711Z,998.00
2023-03-17T16:57:43.753Z,999.00
2023-03-17T16:58:43.800Z,1001.00
2023-03-17T16:59:43.852Z,1001.00
2023-03-17T17:00:43.912Z,1000.00
2023-03-17T17:01:44.000Z,996.00
2023-03-17T17:02:44.037Z,996.00
2023-03-17T17:03:44.084Z,996.00
2023-03-17T17:04:44.149Z,993.00
2023-03-17T17:05:44.212Z,997.00
2023-03-17T17:06:44.228Z,995.00
2023-03-17T17:07:44.278Z,994.00
2023-03-17T17:08:44.346Z,993.00
2023-03-17T17:09:44.393Z,992.00
2023-03-17T17:10:44.442Z,988.00
2023-03-17T17:11:44.496Z,988.00
2023-03-17T18:12:48.001Z,956.00
2023-03-17T18:13:48.053Z,957.00
2023-03-17T18:15:48.230Z,953.00
2023-03-17T18:16:48.334Z,951.00
2023-03-17T18:17:48.302Z,953.00
2023-03-17T18:18:48.356Z,953.00
2023-03-17T18:19:48.425Z,952.00
2023-03-17T18:20:48.530Z,952.00
2023-03-17T18:21:48.554Z,948.00
2023-03-17T18:22:48.617Z,948.00
2023-03-17T18:23:48.705Z,945.00
2023-03-17T18:24:48.753Z,941.00
2023-03-17T18:25:48.809Z,943.00
2023-03-17T18:46:50.208Z,927.00
2023-03-17T18:47:50.294Z,925.00
2023-03-17T18:48:50.343Z,924.00
2023-03-17T18:49:50.730Z,926.00
2023-03-17T18:50:50.475Z,925.00
2023-03-17T18:51:50.541Z,929.00
2023-03-17T18:52:50.603Z,933.00
2023-03-17T18:53:50.693Z,932.00
2023-03-17T18:54:50.826Z,934.00
2023-03-17T18:55:50.810Z,932.00
2023-03-17T18:56:50.877Z,928.00
2023-03-17T19:35:53.528Z,896.00
2023-03-17T19:37:53.634Z,896.00
2023-03-17T19:38:53.700Z,895.00
2023-03-17T19:39:53.776Z,894.00
2023-03-17T19:40:53.843Z,894.00
2023-03-17T19:41:53.902Z,893.00
2023-03-17T19:42:53.984Z,892.00
2023-03-17T19:43:54.737Z,889.00
2023-03-17T19:44:54.117Z,887.00
2023-03-17T19:45:54.201Z,889.00
2023-03-17T19:46:54.256Z,886.00
2023-03-17T19:47:54.318Z,886.00
2023-03-17T19:48:54.432Z,885.00
2023-03-17T19:49:54.468Z,885.00
2023-03-17T19:50:54.522Z,882.00
2023-03-17T19:51:54.597Z,884.00
2023-03-17T19:52:54.665Z,884.00
2023-03-17T19:53:54.733Z,883.00
2023-03-17T19:54:54.858Z,879.00
2023-03-17T19:55:54.963Z,878.00
2023-03-17T19:56:54.948Z,880.00
2023-03-17T19:57:55.015Z,883.00
2023-03-17T19:58:55.089Z,882.00
2023-03-17T19:59:55.261Z,884.00
2023-03-17T20:00:55.229Z,885.00
2023-03-17T20:01:56.265Z,886.00
2023-03-17T20:02:55.371Z,882.00
2023-03-17T20:03:55.438Z,880.00
2023-03-17T20:04:55.607Z,876.00
2023-03-17T20:05:55.592Z,875.00
2023-03-17T20:06:55.819Z,872.00
2023-03-17T20:07:56.257Z,874.00
2023-03-17T20:08:55.798Z,873.00
2023-03-17T20:09:55.946Z,868.00
2023-03-17T20:10:55.953Z,864.00
2023-03-17T20:11:56.020Z,864.00
2023-03-17T20:12:56.086Z,867.00
2023-03-17T20:13:56.176Z,867.00
2023-03-17T20:14:56.243Z,867.00
2023-03-17T20:15:56.333Z,869.00
2023-03-17T20:16:56.377Z,871.00
2023-03-17T20:17:56.445Z,873.00
2023-03-17T20:18:56.564Z,873.00
2023-03-17T20:19:56.626Z,876.00
2023-03-17T20:20:56.775Z,874.00
2023-03-17T20:21:56.767Z,872.00
2023-03-17T20:22:56.843Z,870.00
2023-03-17T20:23:56.925Z,870.00
2023-03-17T20:24:56.995Z,871.00
2023-03-17T20:25:57.102Z,874.00
2023-03-17T20:26:57.230Z,875.00
2023-03-17T20:27:57.273Z,872.00
2023-03-17T20:28:57.303Z,868.00
2023-03-17T20:29:57.379Z,868.00
2023-03-17T20:30:57.481Z,868.00
2023-03-17T20:31:57.542Z,866.00
2023-03-17T20:32:57.645Z,863.00
2023-03-17T20:33:57.665Z,862.00
2023-03-17T20:34:57.732Z,863.00
2023-03-17T20:35:57.841Z,863.00
2023-03-17T20:36:57.892Z,860.00
2023-03-17T20:37:57.993Z,861.00
2023-03-17T20:38:58.046Z,860.00
2023-03-17T20:39:58.134Z,859.00
2023-03-17T20:40:58.217Z,855.00
2023-03-17T20:41:58.300Z,855.00
2023-03-17T20:42:58.383Z,852.00
2023-03-17T20:43:58.469Z,854.00
2023-03-17T20:44:58.532Z,853.00
2023-03-17T20:45:58.599Z,851.00
2023-03-17T20:46:58.791Z,853.00
2023-03-17T20:47:58.754Z,851.00
2023-03-17T20:48:59.078Z,846.00
2023-03-17T20:49:58.957Z,842.00
2023-03-17T20:50:58.981Z,846.00
2023-03-17T20:51:59.037Z,847.00
2023-03-17T20:52:59.123Z,843.00
2023-03-17T20:53:59.216Z,838.00
2023-03-17T20:54:59.527Z,837.00
2023-03-17T20:55:59.376Z,837.00
2023-03-17T20:57:00.265Z,836.00
2023-03-17T20:57:59.525Z,839.00
2023-03-17T20:58:59.612Z,841.00
2023-03-17T20:59:59.709Z,843.00
2023-03-17T21:00:59.764Z,843.00
2023-03-17T21:01:59.918Z,837.00
2023-03-17T21:02:59.959Z,834.00
2023-03-17T21:04:00.022Z,835.00
2023-03-17T21:05:00.116Z,834.00
2023-03-17T21:06:00.170Z,838.00
2023-03-17T21:07:00.232Z,840.00
2023-03-17T21:08:00.307Z,842.00
2023-03-17T21:09:00.406Z,841.00
2023-03-17T21:10:00.466Z,841.00
2023-03-17T21:11:00.570Z,838.00
2023-03-17T21:12:00.638Z,836.00
2023-03-17T21:13:00.714Z,839.00
2023-03-17T21:14:00.785Z,838.00
2023-03-17T21:15:01.196Z,838.00
2023-03-17T21:16:00.981Z,835.00
2023-03-17T21:17:01.014Z,836.00
2023-03-17T21:18:01.124Z,832.00
2023-03-17T21:19:01.174Z,831.00
2023-03-17T21:20:01.268Z,828.00
2023-03-17T21:21:01.328Z,827.00
2023-03-17T21:22:01.405Z,826.00
2023-03-17T21:23:01.489Z,825.00
2023-03-17T21:24:01.566Z,827.00
2023-03-17T21:25:01.650Z,827.00
2023-03-17T21:26:01.734Z,826.00
2023-03-17T21:27:01.808Z,825.00
2023-03-17T21:28:01.893Z,824.00
2023-03-17T21:29:01.975Z,824.00
2023-03-17T21:30:02.037Z,823.00
2023-03-17T21:31:02.176Z,825.00
2023-03-17T21:32:02.256Z,823.00
2023-03-17T21:33:02.344Z,824.00
2023-03-17T21:34:02.356Z,824.00
2023-03-17T21:35:02.447Z,824.00
2023-03-17T21:36:02.531Z,823.00
2023-03-17T21:37:02.602Z,820.00
2023-03-17T21:39:02.659Z,819.00
2023-03-17T21:40:02.722Z,819.00
2023-03-17T21:41:02.779Z,817.00
2023-03-17T21:42:02.857Z,816.00
2023-03-17T21:43:02.928Z,814.00
2023-03-17T21:44:02.975Z,811.00
2023-03-17T21:45:03.015Z,809.00
2023-03-17T21:46:03.139Z,812.00
2023-03-17T21:47:03.117Z,814.00
2023-03-17T21:48:03.179Z,813.00
2023-03-17T21:49:03.216Z,814.00
2023-03-17T21:50:03.311Z,808.00
2023-03-17T21:51:03.289Z,807.00
2023-03-17T21:52:03.342Z,808.00
2023-03-17T21:53:03.422Z,813.00
2023-03-17T21:54:03.459Z,814.00
2023-03-17T21:55:03.533Z,812.00
2023-03-17T21:56:03.617Z,812.00
2023-03-17T21:57:03.666Z,807.00
2023-03-17T21:58:03.735Z,805.00
2023-03-17T21:59:03.796Z,805.00
2023-03-17T22:01:03.930Z,804.00
2023-03-17T22:05:04.174Z,807.00
2023-03-17T22:09:04.467Z,814.00
2023-03-17T22:10:04.517Z,813.00
2023-03-17T22:20:04.855Z,801.00
2023-03-17T22:31:05.131Z,796.00
2023-03-17T22:47:05.624Z,792.00
2023-03-17T22:48:05.649Z,788.00
2023-03-17T22:49:05.676Z,788.00
2023-03-17T22:50:05.695Z,787.00
2023-03-17T22:51:05.769Z,786.00
2023-03-17T22:52:05.744Z,787.00
2023-03-17T22:53:05.773Z,787.00
2023-03-17T22:54:05.816Z,786.00
2023-03-17T22:55:05.815Z,784.00
2023-03-17T22:56:05.867Z,785.00
2023-03-17T22:57:05.959Z,787.00
2023-03-17T22:59:05.898Z,784.00
2023-03-17T23:00:05.946Z,784.00
2023-03-17T23:01:05.989Z,781.00
2023-03-17T23:02:05.975Z,781.00
2023-03-17T23:06:06.006Z,780.00
2023-03-17T23:07:06.016Z,779.00
2023-03-17T23:08:06.026Z,780.00
2023-03-17T23:09:06.033Z,781.00
2023-03-17T23:10:06.071Z,779.00
2023-03-17T23:11:06.112Z,779.00
2023-03-17T23:12:06.120Z,778.00
2023-03-17T23:14:06.161Z,778.00
2023-03-17T23:15:06.227Z,779.00
2023-03-17T23:16:06.214Z,779.00
2023-03-17T23:17:06.431Z,778.00
2023-03-17T23:18:06.288Z,776.00
2023-03-17T23:19:06.332Z,773.00
2023-03-17T23:20:06.445Z,776.00
2023-03-17T23:21:06.398Z,778.00
